createdAt,value
2022-11-24T00:01:10.758Z,1.85
2022-11-24T00:03:37.644Z,1.52
2022-11-24T00:06:10.859Z,1.90
2022-11-24T00:08:39.037Z,2.60
2022-11-24T00:11:13.272Z,2.47
2022-11-24T00:13:40.185Z,2.05
2022-11-24T00:16:17.389Z,4.05
2022-11-24T00:18:46.090Z,4.87
2022-11-24T00:21:13.993Z,5.10
2022-11-24T00:23:40.802Z,5.20
2022-11-24T00:26:11.922Z,7.47
2022-11-24T00:28:39.544Z,5.80
2022-11-24T00:31:23.514Z,5.63
2022-11-24T00:33:52.185Z,5.32
2022-11-24T00:36:20.135Z,3.30
2022-11-24T00:38:47.159Z,2.85
2022-11-24T00:41:14.443Z,2.90
2022-11-24T00:43:41.004Z,2.70
2022-11-24T00:46:07.669Z,2.17
2022-11-24T00:48:34.661Z,3.72
2022-11-24T00:51:05.488Z,4.38
2022-11-24T00:53:32.211Z,5.15
2022-11-24T00:55:58.916Z,4.10
2022-11-24T00:58:25.701Z,4.75
2022-11-24T01:00:52.934Z,4.85
2022-11-24T01:03:20.827Z,4.97
2022-11-24T01:05:47.904Z,6.00
2022-11-24T01:08:15.083Z,7.73
2022-11-24T01:10:41.638Z,5.68
2022-11-24T01:13:08.201Z,15.70
2022-11-24T01:15:36.571Z,9.00
2022-11-24T01:18:04.143Z,8.38
2022-11-24T01:20:31.317Z,8.80
2022-11-24T01:22:57.839Z,8.25
2022-11-24T01:25:24.358Z,8.40
2022-11-24T01:27:50.924Z,12.82
2022-11-24T01:30:17.671Z,5.53
2022-11-24T01:32:44.214Z,4.40
2022-11-24T01:35:10.962Z,3.40
2022-11-24T01:37:37.444Z,4.20
2022-11-24T01:40:04.561Z,3.10
2022-11-24T01:42:46.815Z,3.33
2022-11-24T01:45:28.509Z,2.37
2022-11-24T01:47:55.886Z,2.97
2022-11-24T01:50:23.076Z,2.10
2022-11-24T01:52:54.124Z,3.17
2022-11-24T01:55:25.691Z,2.70
2022-11-24T01:57:59.705Z,2.57
2022-11-24T02:00:26.234Z,2.05
2022-11-24T02:02:53.246Z,1.27
2022-11-24T02:05:37.773Z,1.85
2022-11-24T02:08:10.917Z,2.03
2022-11-24T02:10:49.099Z,3.00
2022-11-24T02:13:16.107Z,3.05
2022-11-24T02:15:42.845Z,3.72
2022-11-24T02:18:09.714Z,5.45
2022-11-24T02:20:36.617Z,4.13
2022-11-24T02:23:31.554Z,4.93
2022-11-24T02:25:57.980Z,5.00
2022-11-24T02:28:29.376Z,4.35
2022-11-24T02:30:56.788Z,5.75
2022-11-24T02:33:25.254Z,6.47
2022-11-24T02:35:52.624Z,13.93
2022-11-24T02:38:19.221Z,11.10
2022-11-24T02:40:49.296Z,7.43
2022-11-24T02:43:20.672Z,7.35
2022-11-24T02:45:47.925Z,6.55
2022-11-24T02:48:15.845Z,19.30
2022-11-24T02:50:42.431Z,9.23
2022-11-24T02:53:09.108Z,9.02
2022-11-24T02:55:35.637Z,6.60
2022-11-24T02:58:02.224Z,5.07
2022-11-24T03:00:28.698Z,4.37
2022-11-24T03:02:55.337Z,2.65
2022-11-24T03:05:21.976Z,2.60
2022-11-24T03:07:48.588Z,2.30
2022-11-24T03:10:16.292Z,2.22
2022-11-24T03:12:43.229Z,2.60
2022-11-24T03:15:10.226Z,2.83
2022-11-24T03:17:36.947Z,2.53
2022-11-24T03:20:05.206Z,8.30
2022-11-24T03:22:32.329Z,5.55
2022-11-24T03:24:59.257Z,4.53
2022-11-24T03:27:26.284Z,4.00
2022-11-24T03:29:52.830Z,5.70
2022-11-24T03:32:19.424Z,5.28
2022-11-24T03:34:45.971Z,4.00
2022-11-24T03:37:12.481Z,3.37
2022-11-24T03:39:39.292Z,9.95
2022-11-24T03:42:05.966Z,4.32
2022-11-24T03:44:32.967Z,2.53
2022-11-24T03:46:59.853Z,3.00
2022-11-24T03:49:26.388Z,3.37
2022-11-24T03:51:53.075Z,1.80
2022-11-24T03:54:19.821Z,2.17
2022-11-24T03:56:46.502Z,1.83
2022-11-24T03:59:13.216Z,1.92
2022-11-24T04:01:39.835Z,1.60
2022-11-24T04:04:06.407Z,2.42
2022-11-24T04:06:32.989Z,1.80
2022-11-24T04:09:00.494Z,1.90
2022-11-24T04:11:45.571Z,3.00
2022-11-24T04:14:13.755Z,3.50
2022-11-24T04:16:40.770Z,3.60
2022-11-24T04:19:07.529Z,2.63
2022-11-24T04:21:34.022Z,3.97
2022-11-24T04:24:00.781Z,2.70
2022-11-24T04:26:27.658Z,2.37
2022-11-24T04:28:54.275Z,2.10
2022-11-24T04:31:20.987Z,2.67
2022-11-24T04:33:47.594Z,2.67
2022-11-24T04:36:14.092Z,2.20
2022-11-24T04:39:24.086Z,2.33
2022-11-24T04:41:27.039Z,2.58
2022-11-24T04:43:53.661Z,2.65
2022-11-24T04:46:20.393Z,2.42
2022-11-24T04:48:46.964Z,2.03
2022-11-24T04:51:14.412Z,2.13
2022-11-24T04:53:41.251Z,2.28
2022-11-24T04:56:08.387Z,1.77
2022-11-24T04:58:35.291Z,1.80
2022-11-24T05:01:01.997Z,1.30
2022-11-24T05:03:28.540Z,2.63
2022-11-24T05:05:58.977Z,1.35
2022-11-24T05:08:25.564Z,3.08
2022-11-24T05:10:52.126Z,2.90
2022-11-24T05:13:18.742Z,3.35
2022-11-24T05:15:45.262Z,1.40
2022-11-24T05:18:15.358Z,1.73
2022-11-24T05:20:44.547Z,1.23
2022-11-24T05:23:11.303Z,1.42
2022-11-24T05:25:37.771Z,0.60
2022-11-24T05:28:06.389Z,0.70
2022-11-24T05:30:33.007Z,1.13
2022-11-24T05:32:59.763Z,0.57
2022-11-24T05:35:26.304Z,1.58
2022-11-24T05:37:52.812Z,1.00
2022-11-24T05:40:19.408Z,1.17
2022-11-24T05:42:48.060Z,0.93
2022-11-24T05:45:18.830Z,0.52
2022-11-24T05:47:46.469Z,1.15
2022-11-24T05:50:15.291Z,0.52
2022-11-24T05:52:43.768Z,0.93
2022-11-24T05:55:11.869Z,0.70
2022-11-24T05:57:38.425Z,0.47
2022-11-24T06:00:07.190Z,0.50
2022-11-24T06:02:33.865Z,0.50
2022-11-24T06:05:00.522Z,0.60
2022-11-24T06:07:27.155Z,0.32
2022-11-24T06:09:53.771Z,0.40
2022-11-24T06:12:20.523Z,0.60
2022-11-24T06:14:47.094Z,1.05
2022-11-24T06:17:13.651Z,0.63
2022-11-24T06:19:42.207Z,0.80
2022-11-24T06:22:08.947Z,0.60
2022-11-24T06:24:35.854Z,0.60
2022-11-24T06:27:02.533Z,0.60
2022-11-24T06:29:29.011Z,0.80
2022-11-24T06:31:55.439Z,0.80
2022-11-24T06:34:22.064Z,0.80
2022-11-24T06:36:48.554Z,0.52
2022-11-24T06:39:15.274Z,1.25
2022-11-24T06:41:41.753Z,1.13
2022-11-24T06:44:08.322Z,0.80
2022-11-24T06:46:34.866Z,0.60
2022-11-24T06:49:02.356Z,0.98
2022-11-24T06:51:29.177Z,0.73
2022-11-24T06:53:56.017Z,0.97
2022-11-24T06:56:22.768Z,0.93
2022-11-24T06:58:51.550Z,1.10
2022-11-24T07:01:21.477Z,1.83
2022-11-24T07:03:49.015Z,2.55
2022-11-24T07:06:16.748Z,3.03
2022-11-24T07:08:44.096Z,4.82
2022-11-24T07:11:18.734Z,3.95
2022-11-24T07:13:46.358Z,3.08
2022-11-24T07:16:18.968Z,2.22
2022-11-24T07:18:47.148Z,2.90
2022-11-24T07:21:14.443Z,3.63
2022-11-24T07:23:41.031Z,2.75
2022-11-24T07:26:09.268Z,2.45
2022-11-24T07:28:36.959Z,2.67
2022-11-24T07:31:12.526Z,3.03
2022-11-24T07:33:39.791Z,3.40
2022-11-24T07:36:08.066Z,4.63
2022-11-24T07:38:35.625Z,3.00
2022-11-24T07:41:04.087Z,4.75
2022-11-24T07:43:35.435Z,3.77
2022-11-24T07:46:02.611Z,4.35
2022-11-24T07:48:29.382Z,4.40
2022-11-24T07:50:59.310Z,2.90
2022-11-24T07:53:26.237Z,3.15
2022-11-24T07:55:56.638Z,3.80
2022-11-24T07:58:23.290Z,3.42
2022-11-24T08:00:50.104Z,3.38
2022-11-24T08:03:16.720Z,3.58
2022-11-24T08:06:07.698Z,2.95
2022-11-24T08:08:33.404Z,2.70
2022-11-24T08:11:08.077Z,3.20
2022-11-24T08:13:35.980Z,2.88
2022-11-24T08:16:14.963Z,2.95
2022-11-24T08:18:42.624Z,3.05
2022-11-24T08:21:12.959Z,2.10
2022-11-24T08:23:39.830Z,2.80
2022-11-24T08:26:09.363Z,2.83
2022-11-24T08:28:36.765Z,2.15
2022-11-24T08:31:06.015Z,2.00
2022-11-24T08:33:32.851Z,3.10
2022-11-24T08:36:05.018Z,2.63
2022-11-24T08:38:31.684Z,2.60
2022-11-24T08:41:07.068Z,2.80
2022-11-24T08:43:33.852Z,2.38
2022-11-24T08:46:03.678Z,2.87
2022-11-24T08:48:30.795Z,2.88
2022-11-24T08:51:08.082Z,3.25
2022-11-24T08:53:34.691Z,2.95
2022-11-24T08:56:01.340Z,2.95
2022-11-24T08:58:31.772Z,2.70
2022-11-24T09:01:13.945Z,2.53
2022-11-24T09:03:49.700Z,1.80
2022-11-24T09:06:25.077Z,1.90
2022-11-24T09:08:53.359Z,1.75
2022-11-24T09:11:20.352Z,2.80
2022-11-24T09:13:47.299Z,2.13
2022-11-24T09:16:15.611Z,2.13
2022-11-24T09:18:42.648Z,2.15
2022-11-24T09:21:17.622Z,1.40
2022-11-24T09:23:45.809Z,1.57
2022-11-24T09:26:18.140Z,2.40
2022-11-24T09:28:46.025Z,1.65
2022-11-24T09:31:14.685Z,1.27
2022-11-24T09:33:41.726Z,1.42
2022-11-24T09:36:09.090Z,1.07
2022-11-24T09:38:35.919Z,0.93
2022-11-24T09:41:31.270Z,1.70
2022-11-24T09:44:22.326Z,1.35
2022-11-24T09:47:02.435Z,0.93
2022-11-24T09:49:36.050Z,1.50
2022-11-24T09:52:09.874Z,2.78
2022-11-24T09:54:51.399Z,3.97
2022-11-24T09:57:21.612Z,1.30
2022-11-24T09:59:48.394Z,1.52
2022-11-24T10:02:15.030Z,8.50
2022-11-24T10:04:46.809Z,2.97
2022-11-24T10:07:42.582Z,3.03
2022-11-24T10:10:26.035Z,5.13
2022-11-24T10:13:23.108Z,4.10
2022-11-24T10:16:11.189Z,1.83
2022-11-24T10:18:42.937Z,5.35
2022-11-24T10:21:15.358Z,4.60
2022-11-24T10:23:49.963Z,3.35
2022-11-24T10:26:26.795Z,3.95
2022-11-24T10:28:55.644Z,2.03
2022-11-24T10:31:24.066Z,4.05
2022-11-24T10:33:51.367Z,2.90
2022-11-24T10:36:37.862Z,1.90
2022-11-24T10:39:18.733Z,1.63
2022-11-24T10:42:03.223Z,1.47
2022-11-24T10:44:30.613Z,1.55
2022-11-24T10:46:58.079Z,1.60
2022-11-24T10:49:33.291Z,1.33
2022-11-24T10:52:15.357Z,0.88
2022-11-24T10:55:03.388Z,1.10
2022-11-24T10:57:33.875Z,1.48
2022-11-24T11:00:02.140Z,1.30
2022-11-24T11:02:39.569Z,1.65
2022-11-24T11:05:35.327Z,2.33
2022-11-24T11:08:15.126Z,1.30
2022-11-24T11:10:43.868Z,1.40
2022-11-24T11:13:31.505Z,1.70
2022-11-24T11:15:59.548Z,1.13
2022-11-24T11:18:32.549Z,1.27
2022-11-24T11:21:04.388Z,1.77
2022-11-24T11:23:35.443Z,1.70
2022-11-24T11:26:23.041Z,1.23
2022-11-24T11:35:03.788Z,2.10
2022-11-24T11:37:33.534Z,1.30
2022-11-24T11:40:01.255Z,1.42
2022-11-24T11:43:01.518Z,1.40
2022-11-24T11:45:36.564Z,1.70
2022-11-24T11:48:03.581Z,2.13
2022-11-24T11:51:14.816Z,1.35
2022-11-24T11:53:46.220Z,2.10
2022-11-24T11:56:29.001Z,2.38
2022-11-24T11:59:25.364Z,1.70
2022-11-24T12:02:21.041Z,1.40
2022-11-24T12:05:01.328Z,1.48
2022-11-24T12:07:50.377Z,1.20
2022-11-24T12:10:53.178Z,1.58
2022-11-24T12:13:32.215Z,2.40
2022-11-24T12:16:11.739Z,1.67
2022-11-24T12:18:58.215Z,1.30
2022-11-24T12:21:43.985Z,2.05
2022-11-24T12:24:28.377Z,1.75
2022-11-24T12:27:20.917Z,0.85
2022-11-24T12:30:16.796Z,2.10
2022-11-24T12:32:43.368Z,2.10
2022-11-24T12:35:28.911Z,2.90
2022-11-24T12:38:04.232Z,1.60
2022-11-24T12:41:18.240Z,0.98
2022-11-24T12:43:52.354Z,1.40
2022-11-24T12:46:46.257Z,1.77
2022-11-24T12:49:12.788Z,1.27
2022-11-24T12:51:43.767Z,1.65
2022-11-24T12:54:14.131Z,1.38
2022-11-24T12:56:45.603Z,1.73
2022-11-24T12:59:20.962Z,1.52
2022-11-24T13:02:04.659Z,1.35
2022-11-24T13:04:40.523Z,1.88
2022-11-24T13:07:27.512Z,2.05
2022-11-24T13:13:13.336Z,1.25
2022-11-24T13:16:20.612Z,2.50
2022-11-24T13:19:09.171Z,1.48
2022-11-24T13:21:42.998Z,1.02
2022-11-24T13:24:19.733Z,1.97
2022-11-24T13:26:53.061Z,1.95
2022-11-24T13:29:29.089Z,1.50
2022-11-24T13:31:56.013Z,1.88
2022-11-24T13:34:46.042Z,1.77
2022-11-24T13:37:31.459Z,2.57
2022-11-24T13:40:14.362Z,1.83
2022-11-24T13:42:59.227Z,1.67
2022-11-24T13:45:45.270Z,1.88
2022-11-24T13:48:21.150Z,2.38
2022-11-24T13:50:51.455Z,1.70
2022-11-24T13:53:35.203Z,2.20
2022-11-24T13:56:14.002Z,1.58
2022-11-24T13:58:42.165Z,1.70
2022-11-24T14:01:22.019Z,1.25
2022-11-24T14:06:52.390Z,0.88
2022-11-24T14:09:27.677Z,1.13
2022-11-24T14:12:06.676Z,1.45
2022-11-24T14:14:33.797Z,1.92
2022-11-24T14:17:07.407Z,1.77
2022-11-24T14:19:34.388Z,2.28
2022-11-24T14:22:01.056Z,1.75
2022-11-24T14:24:39.840Z,1.75
2022-11-24T14:27:14.845Z,2.10
2022-11-24T14:29:54.765Z,1.70
2022-11-24T14:32:22.204Z,1.88
2022-11-24T14:34:52.306Z,1.55
2022-11-24T14:37:20.251Z,2.15
2022-11-24T14:39:49.667Z,2.17
2022-11-24T14:42:27.602Z,1.93
2022-11-24T14:44:54.354Z,2.42
2022-11-24T14:47:32.285Z,1.23
2022-11-24T14:50:15.500Z,1.65
2022-11-24T14:52:47.107Z,1.25
2022-11-24T14:55:26.270Z,1.70
2022-11-24T14:57:53.149Z,2.55
2022-11-24T15:00:28.581Z,2.40
2022-11-24T15:03:13.614Z,1.55
2022-11-24T15:05:51.449Z,1.40
2022-11-24T15:08:18.521Z,1.60
2022-11-24T15:10:45.528Z,1.75
2022-11-24T15:13:24.214Z,1.42
2022-11-24T15:16:00.584Z,1.48
2022-11-24T15:18:38.951Z,2.00
2022-11-24T15:21:05.998Z,2.30
2022-11-24T15:23:35.591Z,2.95
2022-11-24T15:26:02.139Z,1.58
2022-11-24T15:28:31.081Z,1.92
2022-11-24T15:31:04.093Z,2.10
2022-11-24T15:33:31.384Z,1.67
2022-11-24T15:35:58.284Z,2.00
2022-11-24T15:38:24.804Z,6.20
2022-11-24T15:40:54.807Z,2.50
2022-11-24T15:43:33.602Z,2.72
2022-11-24T15:46:01.701Z,2.40
2022-11-24T15:48:28.892Z,2.78
2022-11-24T15:50:57.143Z,2.67
2022-11-24T15:53:45.350Z,1.83
2022-11-24T15:56:18.079Z,2.00
2022-11-24T15:58:44.904Z,3.10
2022-11-24T16:01:11.454Z,1.90
2022-11-24T16:03:47.145Z,2.47
2022-11-24T16:06:23.358Z,3.03
2022-11-24T16:08:51.238Z,1.50
2022-11-24T16:11:17.815Z,1.70
2022-11-24T16:13:51.545Z,1.90
2022-11-24T16:16:19.379Z,1.23
2022-11-24T16:18:46.071Z,1.50
2022-11-24T16:21:12.711Z,1.75
2022-11-24T16:23:40.438Z,2.13
2022-11-24T16:26:07.249Z,2.00
2022-11-24T16:28:34.256Z,1.67
2022-11-24T16:31:01.235Z,2.70
2022-11-24T16:33:29.954Z,1.52
2022-11-24T16:35:56.539Z,1.47
2022-11-24T16:38:23.330Z,1.38
2022-11-24T16:40:58.551Z,1.92
2022-11-24T16:43:25.081Z,1.92
2022-11-24T16:46:04.516Z,1.85
2022-11-24T16:48:36.242Z,2.10
2022-11-24T16:51:07.216Z,1.25
2022-11-24T16:53:34.028Z,2.15
2022-11-24T16:56:00.547Z,3.35
2022-11-24T16:58:27.082Z,2.10
2022-11-24T17:00:53.853Z,2.30
2022-11-24T17:03:20.559Z,2.40
2022-11-24T17:06:08.520Z,1.92
2022-11-24T17:08:38.460Z,1.92
2022-11-24T17:11:10.117Z,2.00
2022-11-24T17:13:36.879Z,2.40
2022-11-24T17:16:07.895Z,2.60
2022-11-24T17:18:34.891Z,1.90
2022-11-24T17:21:07.654Z,1.83
2022-11-24T17:23:35.933Z,1.92
2022-11-24T17:26:04.607Z,1.93
2022-11-24T17:28:31.105Z,1.83
2022-11-24T17:30:57.650Z,1.77
2022-11-24T17:33:24.171Z,2.30
2022-11-24T17:35:50.706Z,2.38
2022-11-24T17:38:17.194Z,1.47
2022-11-24T17:40:47.887Z,2.70
2022-11-24T17:43:14.360Z,2.10
2022-11-24T17:45:40.969Z,2.28
2022-11-24T17:48:07.573Z,1.90
2022-11-24T17:50:34.091Z,2.90
2022-11-24T17:53:01.078Z,1.52
2022-11-24T17:55:27.563Z,2.03
2022-11-24T17:57:56.219Z,1.20
2022-11-24T18:00:22.941Z,4.35
2022-11-24T18:02:50.023Z,2.90
2022-11-24T18:05:16.817Z,2.17
2022-11-24T18:07:43.476Z,1.80
2022-11-24T18:10:10.726Z,2.10
2022-11-24T18:13:06.290Z,1.75
2022-11-24T18:15:35.629Z,1.40
2022-11-24T18:18:03.112Z,2.03
2022-11-24T18:20:29.602Z,2.63
2022-11-24T18:23:05.492Z,2.15
2022-11-24T18:25:33.232Z,1.17
2022-11-24T18:27:59.846Z,1.80
2022-11-24T18:30:26.347Z,1.83
2022-11-24T18:32:52.919Z,1.90
2022-11-24T18:35:19.556Z,1.77
2022-11-24T18:37:46.153Z,1.60
2022-11-24T18:40:12.854Z,1.87
2022-11-24T18:42:39.455Z,1.88
2022-11-24T18:45:06.559Z,2.05
2022-11-24T18:47:33.725Z,2.17
2022-11-24T18:50:00.495Z,2.03
2022-11-24T18:52:27.622Z,2.17
2022-11-24T18:54:54.211Z,2.97
2022-11-24T18:57:20.795Z,1.77
2022-11-24T18:59:47.271Z,1.80
2022-11-24T19:02:13.828Z,1.92
2022-11-24T19:04:40.372Z,1.57
2022-11-24T19:07:06.837Z,1.52
2022-11-24T19:09:33.422Z,2.10
2022-11-24T19:12:00.117Z,2.33
2022-11-24T19:14:26.639Z,1.40
2022-11-24T19:16:53.163Z,2.33
2022-11-24T19:19:19.718Z,1.30
2022-11-24T19:21:46.454Z,1.40
2022-11-24T19:24:15.826Z,1.90
2022-11-24T19:26:42.526Z,1.55
2022-11-24T19:29:09.627Z,1.83
2022-11-24T19:31:38.436Z,1.33
2022-11-24T19:34:05.980Z,2.42
2022-11-24T19:36:32.656Z,1.40
2022-11-24T19:38:59.600Z,1.27
2022-11-24T19:41:28.895Z,1.30
2022-11-24T19:43:56.712Z,1.27
2022-11-24T19:46:27.204Z,1.23
2022-11-24T19:48:56.370Z,1.90
2022-11-24T19:51:25.617Z,2.53
2022-11-24T19:53:53.074Z,2.13
2022-11-24T19:56:25.181Z,1.30
2022-11-24T19:58:53.168Z,1.50
2022-11-24T20:01:34.459Z,1.88
2022-11-24T20:04:04.182Z,1.30
2022-11-24T20:06:34.602Z,1.70
2022-11-24T20:09:01.700Z,1.42
2022-11-24T20:11:28.976Z,2.58
2022-11-24T20:13:56.221Z,1.00
2022-11-24T20:16:29.584Z,1.33
2022-11-24T20:19:00.168Z,1.40
2022-11-24T20:21:29.035Z,1.33
2022-11-24T20:24:02.375Z,2.58
2022-11-24T20:26:31.916Z,1.55
2022-11-24T20:28:59.763Z,2.03
2022-11-24T20:31:29.517Z,2.13
2022-11-24T20:33:56.927Z,1.42
2022-11-24T20:36:26.490Z,1.65
2022-11-24T20:38:53.762Z,2.50
2022-11-24T20:41:25.809Z,1.35
2022-11-24T20:43:53.762Z,2.00
2022-11-24T20:46:29.428Z,2.10
2022-11-24T20:48:57.132Z,1.73
2022-11-24T20:51:27.810Z,1.88
2022-11-24T20:53:58.542Z,1.70
2022-11-24T20:56:31.300Z,1.30
2022-11-24T20:58:58.890Z,1.33
2022-11-24T21:01:31.713Z,1.70
2022-11-24T21:03:59.631Z,1.52
2022-11-24T21:06:27.932Z,1.42
2022-11-24T21:09:00.454Z,1.43
2022-11-24T21:11:30.191Z,2.00
2022-11-24T21:13:57.116Z,1.38
2022-11-24T21:16:29.069Z,1.73
2022-11-24T21:18:59.666Z,1.48
2022-11-24T21:21:33.349Z,1.50
2022-11-24T21:24:07.124Z,1.75
2022-11-24T21:26:37.305Z,1.92
2022-11-24T21:29:04.943Z,1.83
2022-11-24T21:31:34.813Z,1.60
2022-11-24T21:34:01.350Z,1.50
2022-11-24T21:36:27.943Z,1.35
2022-11-24T21:38:56.507Z,1.33
2022-11-24T21:41:24.748Z,1.88
2022-11-24T21:43:53.127Z,1.40
2022-11-24T21:46:19.737Z,1.57
2022-11-24T21:48:46.588Z,1.33
2022-11-24T21:51:16.065Z,1.27
2022-11-24T21:53:43.411Z,1.48
2022-11-24T21:56:13.344Z,1.35
2022-11-24T21:58:50.007Z,1.40
2022-11-24T22:01:19.007Z,1.55
2022-11-24T22:03:46.103Z,1.35
2022-11-24T22:06:13.081Z,1.27
2022-11-24T22:08:39.538Z,1.52
2022-11-24T22:11:09.895Z,0.90
2022-11-24T22:13:36.491Z,1.95
2022-11-24T22:16:06.715Z,1.77
2022-11-24T22:18:35.106Z,2.47
2022-11-24T22:21:04.827Z,1.50
2022-11-24T22:23:32.617Z,1.60
2022-11-24T22:26:11.157Z,1.83
2022-11-24T22:28:38.462Z,1.88
2022-11-24T22:31:07.139Z,1.80
2022-11-24T22:33:34.247Z,2.33
2022-11-24T22:36:01.334Z,1.70
2022-11-24T22:38:28.945Z,2.00
2022-11-24T22:41:00.102Z,1.23
2022-11-24T22:43:26.535Z,2.17
2022-11-24T22:45:53.168Z,1.50
2022-11-24T22:48:19.858Z,1.70
2022-11-24T22:50:46.489Z,1.70
2022-11-24T22:53:13.018Z,2.03
2022-11-24T22:55:39.521Z,1.75
2022-11-24T22:58:06.104Z,1.52
2022-11-24T23:00:32.673Z,1.80
2022-11-24T23:02:59.318Z,1.95
2022-11-24T23:05:25.916Z,1.50
2022-11-24T23:07:52.574Z,1.52
2022-11-24T23:10:19.223Z,1.83
2022-11-24T23:12:45.673Z,2.03
2022-11-24T23:15:12.411Z,1.50
2022-11-24T23:17:38.930Z,1.80
2022-11-24T23:20:06.530Z,2.30
2022-11-24T23:22:33.282Z,2.05
2022-11-24T23:24:59.832Z,1.77
2022-11-24T23:27:26.310Z,1.67
2022-11-24T23:29:52.819Z,1.42
2022-11-24T23:32:19.547Z,1.75
2022-11-24T23:34:46.196Z,1.90
2022-11-24T23:37:12.655Z,1.90
2022-11-24T23:39:39.378Z,1.83
2022-11-24T23:42:06.086Z,2.20
2022-11-24T23:44:32.865Z,1.60
2022-11-24T23:46:59.471Z,3.53
2022-11-24T23:49:26.034Z,2.87
2022-11-24T23:51:52.547Z,5.53
2022-11-24T23:54:19.178Z,3.42
2022-11-24T23:56:45.639Z,3.10
2022-11-24T23:59:12.538Z,1.70
